createdAt,value
2024-03-24T00:00:33.091Z,62.38
2024-03-24T00:01:33.082Z,68.00
2024-03-24T00:02:33.057Z,59.37
2024-03-24T00:03:33.038Z,67.20
2024-03-24T00:04:36.163Z,67.18
2024-03-24T00:05:33.056Z,63.62
2024-03-24T00:06:33.039Z,58.51
2024-03-24T00:07:32.992Z,62.93
2024-03-24T00:08:32.994Z,67.74
2024-03-24T00:09:32.971Z,60.48
2024-03-24T00:10:32.967Z,65.11
2024-03-24T00:11:32.967Z,57.67
2024-03-24T00:12:32.991Z,70.10
2024-03-24T00:13:32.940Z,62.68
2024-03-24T00:14:32.977Z,64.23
2024-03-24T00:15:32.924Z,62.29
2024-03-24T00:16:32.958Z,64.91
2024-03-24T00:17:32.888Z,58.45
2024-03-24T00:18:32.884Z,59.39
2024-03-24T00:19:32.872Z,48.77
2024-03-24T00:20:32.888Z,62.57
2024-03-24T00:21:32.832Z,63.34
2024-03-24T00:22:32.861Z,59.34
2024-03-24T00:23:32.843Z,64.56
2024-03-24T00:24:32.824Z,67.95
2024-03-24T00:25:32.822Z,66.03
2024-03-24T00:26:32.836Z,59.49
2024-03-24T00:27:32.806Z,67.82
2024-03-24T00:28:32.819Z,69.67
2024-03-24T00:29:32.767Z,68.76
2024-03-24T00:30:32.745Z,63.95
2024-03-24T00:31:32.741Z,58.69
2024-03-24T00:32:32.757Z,66.56
2024-03-24T00:33:32.717Z,67.34
2024-03-24T00:34:32.704Z,58.99
2024-03-24T00:35:32.693Z,61.98
2024-03-24T00:36:32.673Z,68.21
2024-03-24T00:37:32.672Z,61.82
2024-03-24T00:38:32.704Z,56.75
2024-03-24T00:39:32.649Z,63.98
2024-03-24T00:40:32.632Z,49.80
2024-03-24T00:41:32.649Z,61.42
2024-03-24T00:42:32.601Z,69.08
2024-03-24T00:43:32.597Z,60.15
2024-03-24T00:44:32.615Z,66.18
2024-03-24T00:45:32.614Z,62.24
2024-03-24T00:46:32.561Z,64.59
2024-03-24T00:47:32.610Z,57.70
2024-03-24T00:48:32.577Z,48.69
2024-03-24T00:49:32.574Z,56.90
2024-03-24T00:50:32.547Z,54.86
2024-03-24T00:51:32.532Z,47.09
2024-03-24T00:52:32.511Z,54.80
2024-03-24T00:53:32.498Z,59.71
2024-03-24T00:54:32.489Z,54.95
2024-03-24T00:55:32.491Z,65.55
2024-03-24T00:56:32.446Z,63.07
2024-03-24T00:57:32.478Z,63.38
2024-03-24T00:58:32.434Z,64.40
2024-03-24T00:59:32.434Z,54.59
2024-03-24T01:00:32.483Z,62.43
2024-03-24T01:01:32.432Z,62.04
2024-03-24T01:02:32.394Z,66.06
2024-03-24T01:03:32.411Z,64.11
2024-03-24T01:04:32.362Z,65.29
2024-03-24T01:05:32.359Z,65.56
2024-03-24T01:06:32.338Z,59.55
2024-03-24T01:07:32.359Z,62.64
2024-03-24T01:08:32.314Z,62.58
2024-03-24T01:09:32.301Z,60.60
2024-03-24T01:10:32.346Z,60.81
2024-03-24T01:11:33.007Z,66.99
2024-03-24T01:12:32.273Z,65.13
2024-03-24T01:13:32.262Z,60.25
2024-03-24T01:14:32.252Z,65.00
2024-03-24T01:15:32.254Z,64.64
2024-03-24T01:16:32.238Z,65.24
2024-03-24T01:17:32.215Z,66.47
2024-03-24T01:18:32.236Z,65.59
2024-03-24T01:19:33.069Z,60.14
2024-03-24T01:20:33.194Z,62.70
2024-03-24T01:21:32.195Z,55.80
2024-03-24T01:22:32.197Z,47.55
2024-03-24T01:23:32.176Z,63.84
2024-03-24T01:24:32.187Z,61.34
2024-03-24T01:25:32.162Z,58.72
2024-03-24T01:26:32.139Z,59.08
2024-03-24T01:27:32.119Z,59.90
2024-03-24T01:28:32.121Z,63.19
2024-03-24T01:29:32.116Z,62.62
2024-03-24T01:30:32.097Z,51.62
2024-03-24T01:31:32.087Z,65.74
2024-03-24T01:32:32.080Z,58.81
2024-03-24T01:33:32.063Z,54.31
2024-03-24T01:34:32.049Z,62.37
2024-03-24T01:35:32.035Z,59.69
2024-03-24T01:36:32.035Z,55.32
2024-03-24T01:37:32.000Z,49.23
2024-03-24T01:38:31.993Z,49.86
2024-03-24T01:39:31.978Z,57.12
2024-03-24T01:40:31.949Z,46.68
2024-03-24T01:41:31.990Z,54.75
2024-03-24T01:42:31.945Z,56.63
2024-03-24T01:43:31.986Z,61.02
2024-03-24T01:44:31.930Z,63.18
2024-03-24T01:45:31.900Z,65.07
2024-03-24T01:46:31.940Z,59.28
2024-03-24T01:47:31.903Z,57.87
2024-03-24T01:48:31.890Z,49.12
2024-03-24T01:49:31.948Z,60.19
2024-03-24T01:50:31.865Z,65.63
2024-03-24T01:51:31.909Z,64.96
2024-03-24T01:52:31.862Z,49.20
2024-03-24T01:53:31.826Z,60.05
2024-03-24T01:54:31.895Z,50.01
2024-03-24T01:55:31.800Z,60.45
2024-03-24T01:56:31.802Z,60.48
2024-03-24T01:57:31.807Z,59.83
2024-03-24T01:58:31.783Z,57.83
2024-03-24T01:59:31.786Z,57.97
2024-03-24T02:00:31.782Z,61.71
2024-03-24T02:01:31.745Z,57.18
2024-03-24T02:02:31.786Z,64.19
2024-03-24T02:03:31.762Z,60.06
2024-03-24T02:04:31.707Z,46.18
2024-03-24T02:05:31.696Z,53.03
2024-03-24T02:06:31.797Z,53.62
2024-03-24T02:07:32.068Z,61.24
2024-03-24T02:08:31.686Z,56.96
2024-03-24T02:09:31.654Z,57.91
2024-03-24T02:10:31.672Z,53.69
2024-03-24T02:11:31.650Z,55.14
2024-03-24T02:12:31.648Z,62.21
2024-03-24T02:13:31.608Z,61.81
2024-03-24T02:14:31.596Z,64.87
2024-03-24T02:15:31.580Z,58.03
2024-03-24T02:16:31.596Z,63.87
2024-03-24T02:17:31.584Z,58.70
2024-03-24T02:18:32.036Z,53.72
2024-03-24T02:19:31.565Z,47.53
2024-03-24T02:20:31.546Z,52.58
2024-03-24T02:21:31.519Z,65.54
2024-03-24T02:22:31.533Z,63.36
2024-03-24T02:23:31.536Z,66.19
2024-03-24T02:24:31.531Z,63.05
2024-03-24T02:25:31.486Z,59.02
2024-03-24T02:26:31.512Z,55.75
2024-03-24T02:27:31.473Z,46.19
2024-03-24T02:28:31.440Z,50.95
2024-03-24T02:29:31.523Z,56.02
2024-03-24T02:30:31.423Z,54.07
2024-03-24T02:31:31.413Z,53.99
2024-03-24T02:32:31.413Z,56.12
2024-03-24T02:33:31.395Z,51.95
2024-03-24T02:34:31.411Z,65.74
2024-03-24T02:35:31.378Z,61.89
2024-03-24T02:36:31.361Z,50.68
2024-03-24T02:37:31.345Z,60.68
2024-03-24T02:38:31.355Z,62.70
2024-03-24T02:39:31.338Z,64.63
2024-03-24T02:40:31.321Z,55.32
2024-03-24T02:41:31.306Z,61.95
2024-03-24T02:42:31.305Z,54.17
2024-03-24T02:43:31.286Z,61.83
2024-03-24T02:44:31.280Z,61.28
2024-03-24T02:45:31.261Z,58.23
2024-03-24T02:46:31.249Z,52.05
2024-03-24T02:47:31.327Z,48.99
2024-03-24T02:48:31.274Z,61.26
2024-03-24T02:49:31.238Z,59.83
2024-03-24T02:50:31.210Z,54.89
2024-03-24T02:51:31.194Z,49.87
2024-03-24T02:52:31.177Z,53.32
2024-03-24T02:53:31.906Z,57.50
2024-03-24T02:54:31.318Z,47.85
2024-03-24T02:55:31.158Z,57.51
2024-03-24T02:56:31.135Z,64.67
2024-03-24T02:57:31.146Z,62.77
2024-03-24T02:58:31.102Z,55.35
2024-03-24T02:59:31.160Z,62.41
2024-03-24T03:00:31.133Z,48.41
2024-03-24T03:01:31.111Z,49.54
2024-03-24T03:02:31.088Z,60.46
2024-03-24T03:03:31.074Z,56.61
2024-03-24T03:04:31.087Z,62.28
2024-03-24T03:05:31.058Z,56.68
2024-03-24T03:06:31.027Z,46.18
2024-03-24T03:07:31.071Z,51.80
2024-03-24T03:08:31.080Z,53.45
2024-03-24T03:09:31.043Z,64.66
2024-03-24T03:10:31.007Z,52.36
2024-03-24T03:11:31.303Z,50.84
2024-03-24T03:12:30.963Z,56.84
2024-03-24T03:13:30.967Z,64.19
2024-03-24T03:14:30.943Z,63.47
2024-03-24T03:15:30.939Z,57.94
2024-03-24T03:16:31.035Z,51.20
2024-03-24T03:17:30.933Z,67.74
2024-03-24T03:18:30.900Z,58.19
2024-03-24T03:19:30.899Z,50.85
2024-03-24T03:20:30.880Z,55.13
2024-03-24T03:21:30.892Z,63.59
2024-03-24T03:22:30.888Z,58.72
2024-03-24T03:23:30.842Z,59.39
2024-03-24T03:24:30.848Z,64.78
2024-03-24T03:25:30.818Z,58.75
2024-03-24T03:26:30.852Z,62.14
2024-03-24T03:27:30.841Z,47.58
2024-03-24T03:28:30.859Z,62.77
2024-03-24T03:29:30.802Z,46.87
2024-03-24T03:30:30.777Z,57.31
2024-03-24T03:31:30.830Z,47.59
2024-03-24T03:32:31.358Z,54.42
2024-03-24T03:33:30.747Z,64.27
2024-03-24T03:34:30.725Z,55.56
2024-03-24T03:35:30.752Z,67.38
2024-03-24T03:36:30.712Z,61.26
2024-03-24T03:37:30.743Z,59.18
2024-03-24T03:38:30.713Z,64.90
2024-03-24T03:39:30.665Z,62.30
2024-03-24T03:40:30.678Z,57.32
2024-03-24T03:41:30.662Z,59.44
2024-03-24T03:42:30.660Z,61.11
2024-03-24T03:43:30.650Z,56.08
2024-03-24T03:44:30.631Z,54.58
2024-03-24T03:45:30.616Z,53.23
2024-03-24T03:46:30.590Z,46.26
2024-03-24T03:47:30.621Z,49.83
2024-03-24T03:48:30.598Z,64.18
2024-03-24T03:49:30.567Z,66.64
2024-03-24T03:50:30.585Z,68.91
2024-03-24T03:51:30.582Z,48.59
2024-03-24T03:52:30.529Z,59.53
2024-03-24T03:53:30.529Z,66.99
2024-03-24T03:54:30.502Z,54.20
2024-03-24T03:55:30.483Z,49.25
2024-03-24T03:56:30.498Z,54.80
2024-03-24T03:57:30.467Z,58.51
2024-03-24T03:58:30.464Z,58.04
2024-03-24T03:59:30.495Z,47.73
2024-03-24T04:00:30.456Z,57.32
2024-03-24T04:01:30.445Z,62.85
2024-03-24T04:02:30.421Z,47.98
2024-03-24T04:03:30.417Z,57.71
2024-03-24T04:04:30.405Z,68.68
2024-03-24T04:05:30.400Z,64.15
2024-03-24T04:06:30.360Z,55.85
2024-03-24T04:07:30.398Z,64.33
2024-03-24T04:08:30.374Z,60.73
2024-03-24T04:09:30.362Z,61.12
2024-03-24T04:10:30.334Z,56.58
2024-03-24T04:11:30.324Z,64.68
2024-03-24T04:12:30.328Z,55.76
2024-03-24T04:13:30.292Z,64.66
2024-03-24T04:14:30.315Z,59.86
2024-03-24T04:15:30.282Z,65.18
2024-03-24T04:16:30.295Z,67.58
2024-03-24T04:17:30.293Z,63.64
2024-03-24T04:18:30.958Z,59.49
2024-03-24T04:19:30.229Z,62.31
2024-03-24T04:20:30.253Z,62.82
2024-03-24T04:21:30.231Z,62.93
2024-03-24T04:22:30.274Z,69.01
2024-03-24T04:23:30.192Z,66.34
2024-03-24T04:24:30.216Z,65.01
2024-03-24T04:25:30.191Z,68.03
2024-03-24T04:26:30.183Z,68.34
2024-03-24T04:27:30.178Z,60.24
2024-03-24T04:28:30.151Z,67.19
2024-03-24T04:29:30.125Z,65.23
2024-03-24T04:30:30.131Z,54.42
2024-03-24T04:31:30.156Z,62.95
2024-03-24T04:32:31.093Z,61.55
2024-03-24T04:33:30.098Z,53.82
2024-03-24T04:34:30.098Z,66.28
2024-03-24T04:35:30.143Z,65.43
2024-03-24T04:36:30.109Z,61.05
2024-03-24T04:37:30.142Z,66.50
2024-03-24T04:38:30.030Z,69.59
2024-03-24T04:39:30.071Z,64.83
2024-03-24T04:40:30.338Z,66.09
2024-03-24T04:41:30.236Z,68.79
2024-03-24T04:42:30.089Z,71.97
2024-03-24T04:43:30.086Z,69.37
2024-03-24T04:44:30.029Z,70.84
2024-03-24T04:45:29.999Z,68.52
2024-03-24T04:46:30.050Z,67.94
2024-03-24T04:47:29.942Z,68.46
2024-03-24T04:48:29.931Z,70.41
2024-03-24T04:49:29.928Z,68.46
2024-03-24T04:50:29.912Z,69.19
2024-03-24T04:51:29.917Z,71.39
2024-03-24T04:52:29.916Z,69.73
2024-03-24T04:53:29.876Z,72.02
2024-03-24T04:54:29.896Z,66.62
2024-03-24T04:55:29.846Z,66.89
2024-03-24T04:56:29.823Z,65.07
2024-03-24T04:57:29.812Z,64.30
2024-03-24T04:58:29.833Z,63.13
2024-03-24T04:59:29.818Z,66.98
2024-03-24T05:00:29.792Z,70.35
2024-03-24T05:01:29.907Z,65.27
2024-03-24T05:02:29.764Z,62.69
2024-03-24T05:03:29.781Z,66.84
2024-03-24T05:04:29.788Z,69.74
2024-03-24T05:05:29.766Z,63.25
2024-03-24T05:06:29.730Z,67.64
2024-03-24T05:07:29.717Z,66.10
2024-03-24T05:08:29.734Z,67.91
2024-03-24T05:09:29.740Z,62.58
2024-03-24T05:10:29.690Z,71.85
2024-03-24T05:11:29.718Z,58.48
2024-03-24T05:12:29.666Z,60.32
2024-03-24T05:13:29.656Z,57.63
2024-03-24T05:14:29.668Z,59.72
2024-03-24T05:15:29.629Z,62.30
2024-03-24T05:16:29.654Z,66.44
2024-03-24T05:17:29.598Z,64.72
2024-03-24T05:18:29.599Z,67.71
2024-03-24T05:19:29.594Z,63.47
2024-03-24T05:20:31.718Z,67.43
2024-03-24T05:21:30.610Z,65.63
2024-03-24T05:22:29.576Z,55.28
2024-03-24T05:23:30.442Z,64.80
2024-03-24T05:24:29.597Z,69.27
2024-03-24T05:25:30.470Z,64.11
2024-03-24T05:26:29.520Z,64.11
2024-03-24T05:27:29.495Z,68.95
2024-03-24T05:28:32.851Z,66.24
2024-03-24T05:29:30.491Z,65.52
2024-03-24T05:30:29.476Z,67.94
2024-03-24T05:31:29.509Z,72.66
2024-03-24T05:32:29.463Z,68.62
2024-03-24T05:33:29.434Z,56.53
2024-03-24T05:34:29.428Z,70.49
2024-03-24T05:35:29.423Z,65.54
2024-03-24T05:36:29.394Z,66.59
2024-03-24T05:37:29.406Z,66.37
2024-03-24T05:38:29.377Z,63.42
2024-03-24T05:39:29.399Z,65.93
2024-03-24T05:40:29.373Z,70.04
2024-03-24T05:41:29.350Z,67.85
2024-03-24T05:42:29.351Z,65.16
2024-03-24T05:43:29.360Z,67.50
2024-03-24T05:44:29.345Z,71.34
2024-03-24T05:45:29.309Z,64.98
2024-03-24T05:46:29.295Z,68.13
2024-03-24T05:47:31.695Z,71.63
2024-03-24T05:48:29.267Z,71.74
2024-03-24T05:49:29.296Z,64.78
2024-03-24T05:50:29.265Z,67.29
2024-03-24T05:51:29.267Z,61.68
2024-03-24T05:52:29.250Z,62.71
2024-03-24T05:53:29.202Z,66.77
2024-03-24T05:54:29.224Z,55.55
2024-03-24T05:55:29.193Z,67.43
2024-03-24T05:56:29.180Z,67.51
2024-03-24T05:57:29.171Z,68.66
2024-03-24T05:58:29.171Z,67.16
2024-03-24T05:59:29.157Z,64.56
2024-03-24T06:00:29.187Z,65.76
2024-03-24T06:01:29.168Z,60.27
2024-03-24T06:02:29.134Z,64.92
2024-03-24T06:03:29.119Z,61.97
2024-03-24T06:04:29.097Z,66.63
2024-03-24T06:05:29.125Z,68.16
2024-03-24T06:06:29.087Z,67.75
2024-03-24T06:07:29.069Z,64.17
2024-03-24T06:08:29.158Z,63.05
2024-03-24T06:09:29.075Z,65.69
2024-03-24T06:10:29.093Z,56.50
2024-03-24T06:11:29.065Z,66.22
2024-03-24T06:12:29.025Z,65.61
2024-03-24T06:13:29.037Z,64.70
2024-03-24T06:14:28.989Z,67.64
2024-03-24T06:15:28.995Z,68.58
2024-03-24T06:16:28.983Z,65.26
2024-03-24T06:17:28.977Z,64.68
2024-03-24T06:18:28.955Z,67.21
2024-03-24T06:19:28.938Z,68.95
2024-03-24T06:20:29.015Z,64.85
2024-03-24T06:21:28.927Z,60.85
2024-03-24T06:22:28.906Z,65.48
2024-03-24T06:23:28.946Z,64.05
2024-03-24T06:24:28.906Z,67.28
2024-03-24T06:25:28.887Z,65.83
2024-03-24T06:26:28.871Z,66.17
2024-03-24T06:27:28.850Z,66.45
2024-03-24T06:28:28.865Z,64.95
2024-03-24T06:29:28.864Z,66.22
2024-03-24T06:30:29.830Z,67.12
2024-03-24T06:31:28.872Z,65.55
2024-03-24T06:32:28.835Z,65.54
2024-03-24T06:33:28.806Z,63.14
2024-03-24T06:34:28.803Z,68.40
2024-03-24T06:35:28.779Z,67.38
2024-03-24T06:36:28.760Z,65.71
2024-03-24T06:37:28.780Z,63.76
2024-03-24T06:38:28.733Z,69.26
2024-03-24T06:39:28.744Z,68.75
2024-03-24T06:40:28.714Z,65.04
2024-03-24T06:41:28.685Z,65.38
2024-03-24T06:42:28.736Z,69.65
2024-03-24T06:43:28.705Z,71.65
2024-03-24T06:44:28.682Z,66.14
2024-03-24T06:45:28.685Z,69.98
2024-03-24T06:46:28.641Z,68.28
2024-03-24T06:47:28.705Z,68.14
2024-03-24T06:48:28.650Z,63.09
2024-03-24T06:49:28.645Z,61.24
2024-03-24T06:50:28.640Z,70.92
2024-03-24T06:51:28.598Z,68.12
2024-03-24T06:52:30.115Z,70.26
2024-03-24T06:53:29.611Z,67.54
2024-03-24T06:54:28.563Z,63.48
2024-03-24T06:55:28.563Z,62.30
2024-03-24T06:56:28.546Z,67.09
2024-03-24T06:57:28.539Z,66.47
2024-03-24T06:58:28.552Z,70.95
2024-03-24T06:59:28.526Z,68.10
2024-03-24T07:00:28.502Z,67.98
2024-03-24T07:01:28.492Z,65.22
2024-03-24T07:02:28.528Z,65.28
2024-03-24T07:03:28.476Z,68.99
2024-03-24T07:04:28.450Z,63.15
2024-03-24T07:05:28.435Z,71.96
2024-03-24T07:06:28.440Z,66.84
2024-03-24T07:07:28.422Z,71.60
2024-03-24T07:08:28.442Z,69.73
2024-03-24T07:09:28.442Z,70.33
2024-03-24T07:10:28.424Z,63.35
2024-03-24T07:11:28.375Z,68.75
2024-03-24T07:12:28.389Z,69.11
2024-03-24T07:13:28.441Z,67.95
2024-03-24T07:14:28.351Z,69.27
2024-03-24T07:15:29.327Z,68.23
2024-03-24T07:16:28.328Z,64.93
2024-03-24T07:17:28.400Z,72.64
2024-03-24T07:18:28.329Z,69.98
2024-03-24T07:19:28.348Z,69.61
2024-03-24T07:20:28.299Z,68.05
2024-03-24T07:21:28.274Z,69.75
2024-03-24T07:22:28.251Z,66.78
2024-03-24T07:23:28.260Z,71.18
2024-03-24T07:24:28.248Z,67.22
2024-03-24T07:25:28.232Z,70.66
2024-03-24T07:26:28.230Z,69.70
2024-03-24T07:27:28.225Z,71.78
2024-03-24T07:28:28.250Z,68.02
2024-03-24T07:29:28.231Z,72.17
2024-03-24T07:30:28.186Z,69.00
2024-03-24T07:31:28.164Z,70.15
2024-03-24T07:32:28.172Z,69.20
2024-03-24T07:33:30.630Z,66.33
2024-03-24T07:34:28.131Z,71.41
2024-03-24T07:35:28.124Z,69.71
2024-03-24T07:36:28.095Z,71.13
2024-03-24T07:37:28.160Z,66.67
2024-03-24T07:38:28.124Z,68.42
2024-03-24T07:39:28.081Z,68.68
2024-03-24T07:40:28.107Z,68.48
2024-03-24T07:41:28.075Z,68.88
2024-03-24T07:42:28.038Z,70.92
2024-03-24T07:43:28.034Z,68.56
2024-03-24T07:44:28.038Z,68.87
2024-03-24T07:45:28.010Z,69.70
2024-03-24T07:46:28.028Z,70.24
2024-03-24T07:47:28.052Z,72.75
2024-03-24T07:48:28.014Z,71.52
2024-03-24T07:49:27.990Z,71.91
2024-03-24T07:50:27.963Z,72.65
2024-03-24T07:51:27.966Z,72.80
2024-03-24T07:52:28.005Z,71.70
2024-03-24T07:53:27.933Z,74.74
2024-03-24T07:54:27.930Z,70.35
2024-03-24T07:55:27.940Z,70.65
2024-03-24T07:56:27.882Z,72.39
2024-03-24T07:57:28.248Z,74.33
2024-03-24T07:58:27.865Z,72.12
2024-03-24T07:59:27.883Z,72.07
2024-03-24T08:00:27.862Z,69.83
2024-03-24T08:01:27.848Z,67.70
2024-03-24T08:02:27.950Z,72.08
2024-03-24T08:03:27.844Z,71.57
2024-03-24T08:04:27.827Z,70.63
2024-03-24T08:05:29.689Z,70.56
2024-03-24T08:06:27.805Z,70.00
2024-03-24T08:07:27.800Z,72.80
2024-03-24T08:08:27.811Z,71.91
2024-03-24T08:09:27.756Z,72.19
2024-03-24T08:10:27.756Z,70.46
2024-03-24T08:11:27.734Z,68.78
2024-03-24T08:12:27.717Z,71.13
2024-03-24T08:13:29.595Z,72.81
2024-03-24T08:14:27.719Z,74.68
2024-03-24T08:15:27.705Z,68.35
2024-03-24T08:16:27.704Z,70.41
2024-03-24T08:17:27.743Z,72.67
2024-03-24T08:18:27.740Z,70.12
2024-03-24T08:19:27.666Z,72.95
2024-03-24T08:20:27.681Z,70.58
2024-03-24T08:21:27.650Z,74.04
2024-03-24T08:22:27.648Z,75.89
2024-03-24T08:23:27.664Z,73.34
2024-03-24T08:24:27.637Z,73.14
2024-03-24T08:25:27.590Z,74.45
2024-03-24T08:26:27.613Z,72.23
2024-03-24T08:27:27.617Z,70.53
2024-03-24T08:28:27.585Z,71.53
2024-03-24T08:29:27.647Z,73.71
2024-03-24T08:30:27.536Z,73.15
2024-03-24T08:31:27.512Z,73.53
2024-03-24T08:32:27.546Z,72.66
2024-03-24T08:33:27.513Z,71.70
2024-03-24T08:34:27.514Z,72.72
2024-03-24T08:35:28.552Z,72.39
2024-03-24T08:36:28.494Z,73.22
2024-03-24T08:37:27.643Z,75.18
2024-03-24T08:38:27.469Z,71.62
2024-03-24T08:39:27.446Z,73.21
2024-03-24T08:40:31.078Z,70.35
2024-03-24T08:41:27.460Z,70.87
2024-03-24T08:42:27.434Z,74.40
2024-03-24T08:43:27.414Z,76.18
2024-03-24T08:44:27.520Z,72.44
2024-03-24T08:45:27.409Z,72.37
2024-03-24T08:46:27.411Z,70.39
2024-03-24T08:47:27.477Z,73.44
2024-03-24T08:48:34.348Z,74.44
2024-03-24T08:49:31.289Z,74.62
2024-03-24T08:50:27.345Z,74.10
2024-03-24T08:51:27.348Z,76.14
2024-03-24T08:52:27.322Z,71.66
2024-03-24T08:53:27.293Z,70.16
2024-03-24T08:54:27.288Z,72.31
2024-03-24T08:55:27.455Z,74.39
2024-03-24T08:56:27.285Z,72.70
2024-03-24T08:57:27.335Z,75.32
2024-03-24T08:58:27.253Z,75.95
2024-03-24T08:59:27.281Z,74.61
2024-03-24T09:00:27.234Z,73.62
2024-03-24T09:01:27.241Z,69.19
2024-03-24T09:02:27.218Z,73.62
2024-03-24T09:03:27.195Z,76.37
2024-03-24T09:04:27.209Z,75.52
2024-03-24T09:05:27.190Z,74.69
2024-03-24T09:06:27.185Z,73.44
2024-03-24T09:07:27.241Z,73.62
2024-03-24T09:08:27.141Z,73.99
2024-03-24T09:09:27.193Z,74.58
2024-03-24T09:10:27.202Z,73.44
2024-03-24T09:11:27.113Z,73.77
2024-03-24T09:12:27.118Z,73.68
2024-03-24T09:13:27.097Z,71.71
2024-03-24T09:14:27.070Z,75.00
2024-03-24T09:15:27.107Z,75.44
2024-03-24T09:16:27.085Z,73.92
2024-03-24T09:17:27.124Z,74.86
2024-03-24T09:18:27.033Z,72.98
2024-03-24T09:19:27.086Z,73.20
2024-03-24T09:20:27.021Z,76.25
2024-03-24T09:21:27.010Z,73.51
2024-03-24T09:22:27.047Z,73.87
2024-03-24T09:23:26.987Z,75.15
2024-03-24T09:24:26.995Z,74.86
2024-03-24T09:25:27.052Z,71.86
2024-03-24T09:26:27.037Z,73.92
2024-03-24T09:27:26.975Z,76.87
2024-03-24T09:28:26.990Z,73.44
2024-03-24T09:29:26.910Z,75.98
2024-03-24T09:30:26.917Z,74.33
2024-03-24T09:31:26.973Z,73.02
2024-03-24T09:32:26.896Z,74.47
2024-03-24T09:33:26.896Z,74.77
2024-03-24T09:34:26.894Z,73.84
2024-03-24T09:35:26.850Z,76.32
2024-03-24T09:36:26.881Z,75.07
2024-03-24T09:37:26.874Z,74.82
2024-03-24T09:38:28.608Z,74.56
2024-03-24T09:39:26.914Z,75.70
2024-03-24T09:40:27.825Z,75.36
2024-03-24T09:41:26.887Z,73.69
2024-03-24T09:42:26.846Z,72.33
2024-03-24T09:43:26.803Z,74.15
2024-03-24T09:44:26.756Z,75.61
2024-03-24T09:45:26.799Z,76.18
2024-03-24T09:46:26.827Z,76.95
2024-03-24T09:47:26.779Z,75.27
2024-03-24T09:48:26.777Z,74.08
2024-03-24T09:49:26.755Z,74.26
2024-03-24T09:50:26.715Z,75.91
2024-03-24T09:51:26.700Z,76.85
2024-03-24T09:52:26.719Z,74.43
2024-03-24T09:53:26.675Z,74.04
2024-03-24T09:54:26.679Z,73.76
2024-03-24T09:55:26.680Z,75.26
2024-03-24T09:56:26.619Z,73.98
2024-03-24T09:57:26.657Z,74.14
2024-03-24T09:58:26.676Z,75.68
2024-03-24T09:59:26.636Z,74.77
2024-03-24T10:00:26.613Z,76.09
2024-03-24T10:01:26.600Z,74.32
2024-03-24T10:02:26.557Z,75.82
2024-03-24T10:03:29.524Z,74.33
2024-03-24T10:04:27.887Z,77.22
2024-03-24T10:05:26.555Z,74.18
2024-03-24T10:06:26.577Z,74.06
2024-03-24T10:07:26.530Z,76.18
2024-03-24T10:08:26.518Z,74.96
2024-03-24T10:09:26.514Z,75.91
2024-03-24T10:10:26.540Z,73.27
2024-03-24T10:11:26.492Z,76.63
2024-03-24T10:12:26.564Z,74.83
2024-03-24T10:13:26.493Z,74.07
2024-03-24T10:14:26.473Z,75.50
2024-03-24T10:15:26.468Z,72.06
2024-03-24T10:16:26.448Z,74.34
2024-03-24T10:17:26.415Z,74.13
2024-03-24T10:18:26.410Z,73.53
2024-03-24T10:19:26.446Z,75.29
2024-03-24T10:20:26.409Z,76.81
2024-03-24T10:21:26.400Z,75.01
2024-03-24T10:22:26.368Z,76.39
2024-03-24T10:23:26.360Z,75.06
2024-03-24T10:24:26.607Z,75.32
2024-03-24T10:25:26.362Z,74.79
2024-03-24T10:26:26.329Z,76.35
2024-03-24T10:27:26.333Z,74.09
2024-03-24T10:28:26.384Z,75.44
2024-03-24T10:29:26.273Z,75.92
2024-03-24T10:30:26.935Z,74.55
2024-03-24T10:31:26.301Z,74.97
2024-03-24T10:32:28.365Z,75.38
2024-03-24T10:33:27.257Z,72.63
2024-03-24T10:34:26.315Z,74.43
2024-03-24T10:35:26.219Z,76.92
2024-03-24T10:36:26.225Z,77.05
2024-03-24T10:37:26.218Z,76.82
2024-03-24T10:38:26.186Z,75.12
2024-03-24T10:39:26.180Z,74.28
2024-03-24T10:40:26.273Z,73.76
2024-03-24T10:41:26.174Z,73.94
2024-03-24T10:42:26.149Z,73.96
2024-03-24T10:43:26.176Z,75.43
2024-03-24T10:44:26.132Z,75.51
2024-03-24T10:45:26.141Z,73.44
2024-03-24T10:46:26.908Z,76.56
2024-03-24T10:47:26.106Z,76.50
2024-03-24T10:48:26.932Z,75.45
2024-03-24T10:49:26.066Z,75.23
2024-03-24T10:50:26.143Z,75.03
2024-03-24T10:51:26.016Z,74.98
2024-03-24T10:52:26.102Z,75.78
2024-03-24T10:53:26.014Z,75.67
2024-03-24T10:54:26.119Z,75.98
2024-03-24T10:55:25.985Z,76.12
2024-03-24T10:56:26.037Z,75.67
2024-03-24T10:57:25.954Z,75.23
2024-03-24T10:58:25.951Z,73.96
2024-03-24T10:59:25.974Z,75.30
2024-03-24T11:00:26.016Z,73.95
2024-03-24T11:01:25.998Z,73.88
2024-03-24T11:02:26.099Z,75.13
2024-03-24T11:03:25.932Z,73.04
2024-03-24T11:04:25.972Z,73.87
2024-03-24T11:05:25.875Z,71.88
2024-03-24T11:06:26.903Z,73.11
2024-03-24T11:07:25.847Z,72.38
2024-03-24T11:08:25.821Z,75.66
2024-03-24T11:09:25.817Z,76.45
2024-03-24T11:10:25.910Z,73.55
2024-03-24T11:11:25.812Z,72.00
2024-03-24T11:12:25.914Z,72.85
2024-03-24T11:13:25.834Z,74.10
2024-03-24T11:14:25.923Z,73.39
2024-03-24T11:15:25.864Z,74.63
2024-03-24T11:16:25.766Z,74.41
2024-03-24T11:17:25.836Z,74.38
2024-03-24T11:18:25.758Z,74.79
2024-03-24T11:19:25.786Z,74.46
2024-03-24T11:20:25.825Z,74.28
2024-03-24T11:21:25.764Z,73.40
2024-03-24T11:22:25.765Z,75.10
2024-03-24T11:23:25.743Z,74.67
2024-03-24T11:24:26.424Z,73.55
2024-03-24T11:25:25.697Z,74.81
2024-03-24T11:26:25.717Z,75.19
2024-03-24T11:27:25.674Z,74.02
2024-03-24T11:28:25.681Z,76.05
2024-03-24T11:29:25.654Z,76.67
2024-03-24T11:30:25.641Z,74.41
2024-03-24T11:31:25.666Z,73.07
2024-03-24T11:32:25.635Z,73.31
2024-03-24T11:33:26.411Z,76.47
2024-03-24T11:34:25.606Z,76.66
2024-03-24T11:35:25.602Z,73.27
2024-03-24T11:36:25.647Z,75.25
2024-03-24T11:37:25.531Z,74.80
2024-03-24T11:38:25.542Z,75.21
2024-03-24T11:39:25.523Z,75.76
2024-03-24T11:40:25.574Z,76.35
2024-03-24T11:41:28.159Z,75.06
2024-03-24T11:42:26.532Z,76.24
2024-03-24T11:43:25.477Z,75.93
2024-03-24T11:44:25.494Z,74.60
2024-03-24T11:45:25.494Z,75.36
2024-03-24T11:46:25.536Z,72.88
2024-03-24T11:47:25.487Z,75.53
2024-03-24T11:48:25.456Z,74.36
2024-03-24T11:49:26.347Z,72.82
2024-03-24T11:50:25.426Z,72.56
2024-03-24T11:51:25.427Z,73.15
2024-03-24T11:52:25.439Z,74.79
2024-03-24T11:53:25.418Z,75.29
2024-03-24T11:54:25.362Z,73.34
2024-03-24T11:55:25.374Z,74.53
2024-03-24T11:56:25.351Z,74.34
2024-03-24T11:57:25.348Z,72.09
2024-03-24T11:58:25.346Z,77.11
2024-03-24T11:59:25.358Z,75.39
2024-03-24T12:00:25.378Z,75.13
2024-03-24T12:01:25.335Z,71.20
2024-03-24T12:02:25.278Z,73.20
2024-03-24T12:03:25.496Z,74.79
2024-03-24T12:04:25.288Z,74.25
2024-03-24T12:05:25.254Z,74.59
2024-03-24T12:06:25.230Z,73.95
2024-03-24T12:07:25.295Z,74.44
2024-03-24T12:08:25.309Z,73.68
2024-03-24T12:09:25.208Z,75.80
2024-03-24T12:10:25.203Z,74.97
2024-03-24T12:11:27.513Z,73.70
2024-03-24T12:12:26.168Z,75.80
2024-03-24T12:13:25.144Z,73.28
2024-03-24T12:14:25.098Z,69.97
2024-03-24T12:15:25.150Z,74.08
2024-03-24T12:16:25.193Z,72.21
2024-03-24T12:17:25.304Z,74.13
2024-03-24T12:18:25.095Z,76.34
2024-03-24T12:19:25.128Z,74.91
2024-03-24T12:20:25.199Z,75.15
2024-03-24T12:21:25.059Z,73.82
2024-03-24T12:22:25.016Z,74.10
2024-03-24T12:23:25.049Z,75.87
2024-03-24T12:24:25.046Z,73.93
2024-03-24T12:25:25.071Z,74.28
2024-03-24T12:26:24.986Z,75.82
2024-03-24T12:27:24.999Z,74.94
2024-03-24T12:28:25.166Z,74.55
2024-03-24T12:29:25.027Z,74.30
2024-03-24T12:30:25.050Z,75.96
2024-03-24T12:31:25.748Z,74.90
2024-03-24T12:32:25.018Z,74.28
2024-03-24T12:33:25.036Z,76.18
2024-03-24T12:34:24.960Z,75.10
2024-03-24T12:35:24.963Z,74.69
2024-03-24T12:36:25.988Z,75.18
2024-03-24T12:37:24.907Z,74.89
2024-03-24T12:38:25.045Z,74.86
2024-03-24T12:39:25.067Z,74.69
2024-03-24T12:40:24.888Z,75.95
2024-03-24T12:41:24.882Z,73.15
2024-03-24T12:42:25.827Z,73.72
2024-03-24T12:43:24.812Z,75.33
2024-03-24T12:44:24.840Z,72.53
2024-03-24T12:45:24.800Z,75.91
2024-03-24T12:46:24.792Z,75.21
2024-03-24T12:47:24.814Z,75.59
2024-03-24T12:48:25.360Z,76.63
2024-03-24T12:49:38.455Z,76.01
2024-03-24T12:51:26.507Z,77.44
2024-03-24T12:52:25.347Z,75.74
2024-03-24T12:53:24.759Z,75.90